AirNav   Everest Fuels
 
 712 users online  

6FD5 Blanket Bay Airport
Yeehaw Junction, Florida, USA

GOING TO YEEHAW JUNCTION?


FAA INFORMATION EFFECTIVE 05 DECEMBER 2019

Location

FAA Identifier: 6FD5
Lat/Long: 27-46-43.1000N 081-05-59.2370W
27-46.718333N 081-05.987283W
27.7786389,-81.0997881
(estimated)
Elevation: 65 ft. / 20 m (estimated)
Variation: 03W (1990)
From city: 14 miles NW of YEEHAW JUNCTION, FL
Time zone: UTC -5 (UTC -4 during Daylight Saving Time)
Zip code: 34739

Airport Operations

Airport use: Private use. Permission required prior to landing
Activation date: 06/1992
Control tower: no
ARTCC: MIAMI CENTER
FSS: SAINT PETERSBURG FLIGHT SERVICE STATION
Attendance: UNATNDD
Wind indicator: yes
Segmented circle: no

Nearby radio navigation aids

VOR radial/distance  VOR name  Freq  Var
MLBr238/31.5MELBOURNE VOR/DME110.0007W
TRVr288/33.0TREASURE VORTAC117.3007W

Airport Services

Runway Information

Runway 10/28

Dimensions: 3000 x 80 ft. / 914 x 24 m
Surface: turf, in fair condition
RUNWAY 10  RUNWAY 28
Traffic pattern: leftleft
Displaced threshold: 100 ft.100 ft.

Airport Ownership and Management from official FAA records

Ownership: Privately-owned
Owner: BEXLEY RANCH LAND TRUST
PO BOX 10
SUMTERVILLE, FL 33585-2909
Phone 352-569-1264
Manager: BRIAN BEXLEY
PO BOX 10
SUMTERVILLE, FL 33585-2909
Phone 352-569-1264

Additional Remarks

FOR CD CTC MIAMI ARTCC AT 305-716-1731.

Instrument Procedures

There are no published instrument procedures at 6FD5.

Some nearby airports with instrument procedures:

KSEF - Sebring Regional Airport (23 nm SW)
KAVO - Avon Park Executive Airport (25 nm SW)
X07 - Lake Wales Municipal Airport (28 nm W)
KMLB - Melbourne International Airport (31 nm NE)
X26 - Sebastian Municipal Airport (32 nm E)
 
Loc | Ops | Rwys | IFR | FBO | Links
Com | Nav | Svcs | Stats | Notes

Reliance Aviation
AirBoss

 
Area around 6FD5 (Blanket Bay Airport)
 
Road maps at: MapQuest Bing Google
 
Aerial photo
No photo
 
Sectional chart

 
Airport distance calculator
Flying to Blanket Bay Airport? Find the distance to fly.

From to 6FD5

Sunrise and sunset
Times for 14-Dec-2019
 Local
(UTC-5)
 Zulu
(UTC)
Morning civil twilight06:4211:42
Sunrise07:0812:08
Sunset17:3022:30
Evening civil twilight17:5622:56

Current date and time
Zulu (UTC)  14-Dec-2019 14:44:40
Local (UTC-5)  14-Dec-2019 09:44:40
 
METAR
KSEF 
23nm SW 
141435Z AUTO 30009KT 10SM SCT011 SCT019 SCT065 21/20 A2985 RMK AO2 LTG DSNT NE AND E T02100197
KX07 
28nm W 
141435Z AUTO 00000KT 10SM CLR 20/18 A2985 RMK A01
TAF
KMLB 
31nm NE 
141316Z 1413/1512 21011KT P6SM VCTS BKN008CB TEMPO 1414/1415 27012G28KT 2SM TSRA BKN008CB BKN015 FM141500 24012G18KT P6SM VCSH SCT030 OVC050 FM141700 26014G20KT P6SM FEW050 SCT250 FM150000 33004KT P6SM SKC
KISM 
35nm NW 
141302Z 1413/1512 31010KT P6SM VCSH SCT025 BKN050 TEMPO 1413/1414 SCT010 BKN015 FM141600 27012G19KT P6SM SCT250 FM150000 32004KT P6SM SKC
KVRB 
37nm E 
141147Z 1412/1512 21008KT P6SM SCT006 BKN020 TEMPO 1412/1413 BKN007 FM141400 24012G18KT P6SM VCSH SCT030 BKN050 TEMPO 1415/1416 3SM SHRA BKN025 FM141800 26014G20KT P6SM FEW050 BKN250 FM150000 29004KT P6SM SKC
KCOF 
38nm NE 
141100Z 1411/1517 21015G25KT 9999 BKN008 540029 QNH2973INS TEMPO 1413/1416 VRB20G35KT 1600 TSRA BKN011CB OVC018 BECMG 1417/1418 28020G30KT 9999 FEW015 SCT040 520059 QNH2978INS BECMG 1423/1424 30009KT 9999 SKC 520059 QNH2990INS TX24/1417Z TN16/1511Z
NOTAMs
Click for the latest NOTAMs
NOTAMs are issued by the DoD/FAA and will open in a separate window not controlled by AirNav.

 

 
 

Would you like to see your business listed on this page?

 If your business provides an interesting product or service to pilots, flight crews, aircraft, or users of the Blanket Bay Airport, you should consider listing it here.  To start the listing process, click on the button below
 
Add a business
 

Other Pages about Blanket Bay Airport

Update a link
 
Copyright © AirNav, LLC. All rights reserved. Privacy Policy  Contact